sensor_id;sensor_type;location;lat;lon;timestamp;P1;durP1;ratioP1;P2;durP2;ratioP2
1523;SDS011;755;53.658;10.118;2022-07-06T00:07:36;1999.90;;;999.90;;
1523;SDS011;755;53.658;10.118;2022-07-06T00:17:41;1999.90;;;999.90;;
1523;SDS011;755;53.658;10.118;2022-07-06T00:27:44;1999.90;;;999.90;;
1523;SDS011;755;53.658;10.118;2022-07-06T00:37:48;1999.90;;;999.90;;
1523;SDS011;755;53.658;10.118;2022-07-06T00:47:50;1999.90;;;999.90;;
1523;SDS011;755;53.658;10.118;2022-07-06T00:57:55;1999.90;;;999.90;;
1523;SDS011;755;53.658;10.118;2022-07-06T01:07:58;1999.90;;;999.90;;
1523;SDS011;755;53.658;10.118;2022-07-06T01:18:08;1999.90;;;999.90;;
1523;SDS011;755;53.658;10.118;2022-07-06T01:28:15;1999.90;;;999.90;;
1523;SDS011;755;53.658;10.118;2022-07-06T01:38:18;1999.90;;;999.90;;
1523;SDS011;755;53.658;10.118;2022-07-06T01:48:22;1999.90;;;999.90;;
1523;SDS011;755;53.658;10.118;2022-07-06T01:58:24;1999.90;;;999.90;;
1523;SDS011;755;53.658;10.118;2022-07-06T02:08:29;1999.90;;;999.90;;
1523;SDS011;755;53.658;10.118;2022-07-06T02:18:31;1999.90;;;999.90;;
1523;SDS011;755;53.658;10.118;2022-07-06T02:39:11;1999.90;;;999.90;;
1523;SDS011;755;53.658;10.118;2022-07-06T02:59:39;1999.90;;;999.90;;
1523;SDS011;755;53.658;10.118;2022-07-06T03:09:43;1999.90;;;999.90;;
1523;SDS011;755;53.658;10.118;2022-07-06T03:19:45;1999.90;;;999.90;;
1523;SDS011;755;53.658;10.118;2022-07-06T03:29:49;1999.90;;;999.90;;
1523;SDS011;755;53.658;10.118;2022-07-06T03:39:59;1999.90;;;999.90;;
1523;SDS011;755;53.658;10.118;2022-07-06T03:50:06;1999.90;;;999.90;;
1523;SDS011;755;53.658;10.118;2022-07-06T04:00:10;1999.90;;;999.90;;
1523;SDS011;755;53.658;10.118;2022-07-06T04:10:14;1999.90;;;999.90;;
1523;SDS011;755;53.658;10.118;2022-07-06T04:20:17;1999.90;;;999.90;;
1523;SDS011;755;53.658;10.118;2022-07-06T04:30:34;1999.90;;;999.90;;
1523;SDS011;755;53.658;10.118;2022-07-06T04:40:37;1999.90;;;999.90;;
1523;SDS011;755;53.658;10.118;2022-07-06T04:50:41;1999.90;;;999.90;;
1523;SDS011;755;53.658;10.118;2022-07-06T05:00:44;1999.90;;;999.90;;
1523;SDS011;755;53.658;10.118;2022-07-06T05:10:49;1999.90;;;999.90;;
1523;SDS011;755;53.658;10.118;2022-07-06T05:20:52;1999.90;;;999.90;;
1523;SDS011;755;53.658;10.118;2022-07-06T05:30:56;1999.90;;;999.90;;
1523;SDS011;755;53.658;10.118;2022-07-06T05:40:59;1999.90;;;999.90;;
1523;SDS011;755;53.658;10.118;2022-07-06T05:51:03;1999.90;;;999.90;;
1523;SDS011;755;53.658;10.118;2022-07-06T06:01:06;1999.90;;;999.90;;
1523;SDS011;755;53.658;10.118;2022-07-06T06:11:10;1999.90;;;999.90;;
1523;SDS011;755;53.658;10.118;2022-07-06T06:21:13;1999.90;;;999.90;;
1523;SDS011;755;53.658;10.118;2022-07-06T06:31:18;1999.90;;;999.90;;
1523;SDS011;755;53.658;10.118;2022-07-06T06:41:21;1999.90;;;999.90;;
1523;SDS011;755;53.658;10.118;2022-07-06T07:02:23;1999.90;;;999.90;;
1523;SDS011;755;53.658;10.118;2022-07-06T07:12:28;68.15;;;63.85;;
1523;SDS011;755;53.658;10.118;2022-07-06T07:22:33;554.00;;;300.63;;
1523;SDS011;755;53.658;10.118;2022-07-06T07:44:14;1999.90;;;999.90;;
1523;SDS011;755;53.658;10.118;2022-07-06T07:54:19;79.33;;;74.67;;
1523;SDS011;755;53.658;10.118;2022-07-06T08:04:26;568.72;;;314.60;;
1523;SDS011;755;53.658;10.118;2022-07-06T08:14:38;1999.90;;;999.90;;
1523;SDS011;755;53.658;10.118;2022-07-06T08:25:07;1999.90;;;999.90;;
1523;SDS011;755;53.658;10.118;2022-07-06T08:35:11;68.10;;;63.92;;
1523;SDS011;755;53.658;10.118;2022-07-06T08:45:29;73.88;;;69.43;;
1523;SDS011;755;53.658;10.118;2022-07-06T08:56:04;65.15;;;61.15;;
1523;SDS011;755;53.658;10.118;2022-07-06T09:06:09;1999.90;;;999.90;;
1523;SDS011;755;53.658;10.118;2022-07-06T09:16:14;1999.90;;;999.90;;
1523;SDS011;755;53.658;10.118;2022-07-06T09:26:23;1999.90;;;999.90;;
1523;SDS011;755;53.658;10.118;2022-07-06T09:58:27;49.28;;;46.38;;
1523;SDS011;755;53.658;10.118;2022-07-06T10:08:50;53.47;;;50.35;;
1523;SDS011;755;53.658;10.118;2022-07-06T10:18:55;34.78;;;32.58;;
1523;SDS011;755;53.658;10.118;2022-07-06T10:28:59;34.97;;;32.92;;
1523;SDS011;755;53.658;10.118;2022-07-06T10:39:07;44.55;;;41.95;;
1523;SDS011;755;53.658;10.118;2022-07-06T10:49:28;32.97;;;31.00;;
1523;SDS011;755;53.658;10.118;2022-07-06T11:10:22;45.20;;;42.60;;
1523;SDS011;755;53.658;10.118;2022-07-06T11:20:25;41.40;;;38.85;;
1523;SDS011;755;53.658;10.118;2022-07-06T11:30:35;69.93;;;65.63;;
1523;SDS011;755;53.658;10.118;2022-07-06T11:51:22;1999.90;;;999.90;;
1523;SDS011;755;53.658;10.118;2022-07-06T12:01:26;71.75;;;67.47;;
1523;SDS011;755;53.658;10.118;2022-07-06T12:11:34;77.03;;;72.45;;
1523;SDS011;755;53.658;10.118;2022-07-06T12:21:42;73.70;;;69.07;;
1523;SDS011;755;53.658;10.118;2022-07-06T12:43:11;1999.90;;;999.90;;
1523;SDS011;755;53.658;10.118;2022-07-06T12:53:25;40.08;;;37.80;;
1523;SDS011;755;53.658;10.118;2022-07-06T13:35:15;31.25;;;29.45;;
1523;SDS011;755;53.658;10.118;2022-07-06T13:45:19;30.95;;;29.20;;
1523;SDS011;755;53.658;10.118;2022-07-06T13:55:24;23.50;;;22.20;;
1523;SDS011;755;53.658;10.118;2022-07-06T14:05:27;30.27;;;28.40;;
1523;SDS011;755;53.658;10.118;2022-07-06T14:47:47;31.15;;;28.65;;
1523;SDS011;755;53.658;10.118;2022-07-06T14:57:50;32.45;;;30.13;;
1523;SDS011;755;53.658;10.118;2022-07-06T15:07:54;29.58;;;27.88;;
1523;SDS011;755;53.658;10.118;2022-07-06T15:18:12;30.38;;;28.50;;
1523;SDS011;755;53.658;10.118;2022-07-06T15:28:16;29.10;;;27.30;;
1523;SDS011;755;53.658;10.118;2022-07-06T15:38:19;1999.90;;;999.90;;
1523;SDS011;755;53.658;10.118;2022-07-06T15:48:24;1999.90;;;999.90;;
1523;SDS011;755;53.658;10.118;2022-07-06T15:58:26;1999.90;;;999.90;;
1523;SDS011;755;53.658;10.118;2022-07-06T16:08:31;1999.90;;;999.90;;
1523;SDS011;755;53.658;10.118;2022-07-06T16:18:34;31.30;;;29.50;;
1523;SDS011;755;53.658;10.118;2022-07-06T16:28:38;31.38;;;29.50;;
1523;SDS011;755;53.658;10.118;2022-07-06T16:49:19;1999.90;;;999.90;;
1523;SDS011;755;53.658;10.118;2022-07-06T16:59:22;29.75;;;28.05;;
1523;SDS011;755;53.658;10.118;2022-07-06T17:09:26;1999.90;;;999.90;;
1523;SDS011;755;53.658;10.118;2022-07-06T17:19:29;1999.90;;;999.90;;
1523;SDS011;755;53.658;10.118;2022-07-06T17:29:33;1999.90;;;999.90;;
1523;SDS011;755;53.658;10.118;2022-07-06T17:40:08;1999.90;;;999.90;;
1523;SDS011;755;53.658;10.118;2022-07-06T18:01:10;1999.90;;;999.90;;
1523;SDS011;755;53.658;10.118;2022-07-06T18:11:34;1999.90;;;999.90;;
1523;SDS011;755;53.658;10.118;2022-07-06T18:21:39;1999.90;;;999.90;;
1523;SDS011;755;53.658;10.118;2022-07-06T18:31:42;1999.90;;;999.90;;
1523;SDS011;755;53.658;10.118;2022-07-06T18:52:07;1999.90;;;999.90;;
1523;SDS011;755;53.658;10.118;2022-07-06T19:13:05;1999.90;;;999.90;;
1523;SDS011;755;53.658;10.118;2022-07-06T19:33:39;83.15;;;78.25;;
1523;SDS011;755;53.658;10.118;2022-07-06T19:43:42;65.38;;;61.40;;
1523;SDS011;755;53.658;10.118;2022-07-06T19:54:03;56.03;;;52.70;;
1523;SDS011;755;53.658;10.118;2022-07-06T20:04:06;37.25;;;34.92;;
1523;SDS011;755;53.658;10.118;2022-07-06T20:14:10;47.50;;;44.17;;
1523;SDS011;755;53.658;10.118;2022-07-06T20:24:13;1999.90;;;999.90;;
1523;SDS011;755;53.658;10.118;2022-07-06T20:34:18;1999.90;;;999.90;;
1523;SDS011;755;53.658;10.118;2022-07-06T20:44:20;1999.90;;;999.90;;
1523;SDS011;755;53.658;10.118;2022-07-06T20:54:25;1999.90;;;999.90;;
1523;SDS011;755;53.658;10.118;2022-07-06T21:04:28;1999.90;;;999.90;;
1523;SDS011;755;53.658;10.118;2022-07-06T21:14:32;1999.90;;;999.90;;
1523;SDS011;755;53.658;10.118;2022-07-06T21:24:35;1999.90;;;999.90;;
1523;SDS011;755;53.658;10.118;2022-07-06T21:34:39;1999.90;;;999.90;;
1523;SDS011;755;53.658;10.118;2022-07-06T21:44:42;1999.90;;;999.90;;
1523;SDS011;755;53.658;10.118;2022-07-06T21:54:46;1999.90;;;999.90;;
1523;SDS011;755;53.658;10.118;2022-07-06T22:04:49;1999.90;;;999.90;;
1523;SDS011;755;53.658;10.118;2022-07-06T22:14:55;1999.90;;;999.90;;
1523;SDS011;755;53.658;10.118;2022-07-06T22:24:59;1999.90;;;999.90;;
1523;SDS011;755;53.658;10.118;2022-07-06T22:35:04;1999.90;;;999.90;;
1523;SDS011;755;53.658;10.118;2022-07-06T22:45:31;1999.90;;;999.90;;
1523;SDS011;755;53.658;10.118;2022-07-06T22:56:04;1999.90;;;999.90;;
1523;SDS011;755;53.658;10.118;2022-07-06T23:06:07;1999.90;;;999.90;;
1523;SDS011;755;53.658;10.118;2022-07-06T23:26:37;1999.90;;;999.90;;
1523;SDS011;755;53.658;10.118;2022-07-06T23:36:42;1999.90;;;999.90;;
1523;SDS011;755;53.658;10.118;2022-07-06T23:46:45;1999.90;;;999.90;;
1523;SDS011;755;53.658;10.118;2022-07-06T23:56:49;1999.90;;;999.90;;
